sensor_id;sensor_type;location;lat;lon;timestamp;temperature;humidity
44063;DHT22;29727;47.606;19.130;2023-02-15T00:00:12;3.00;68.50
44063;DHT22;29727;47.606;19.130;2023-02-15T00:02:39;3.00;68.50
44063;DHT22;29727;47.606;19.130;2023-02-15T00:05:05;3.00;68.50
44063;DHT22;29727;47.606;19.130;2023-02-15T00:07:31;3.00;68.50
44063;DHT22;29727;47.606;19.130;2023-02-15T00:09:56;2.90;68.40
44063;DHT22;29727;47.606;19.130;2023-02-15T00:12:22;2.90;68.40
44063;DHT22;29727;47.606;19.130;2023-02-15T00:14:48;3.00;68.80
44063;DHT22;29727;47.606;19.130;2023-02-15T00:17:13;2.90;68.60
44063;DHT22;29727;47.606;19.130;2023-02-15T00:19:39;2.90;68.60
44063;DHT22;29727;47.606;19.130;2023-02-15T00:22:05;2.90;68.70
44063;DHT22;29727;47.606;19.130;2023-02-15T00:24:31;2.80;68.80
44063;DHT22;29727;47.606;19.130;2023-02-15T00:26:57;2.80;68.70
44063;DHT22;29727;47.606;19.130;2023-02-15T00:29:23;2.80;68.80
44063;DHT22;29727;47.606;19.130;2023-02-15T00:31:49;2.80;68.80
44063;DHT22;29727;47.606;19.130;2023-02-15T00:34:26;2.80;68.80
44063;DHT22;29727;47.606;19.130;2023-02-15T00:36:52;2.80;68.70
44063;DHT22;29727;47.606;19.130;2023-02-15T00:39:18;2.80;68.60
44063;DHT22;29727;47.606;19.130;2023-02-15T00:41:45;2.70;68.60
44063;DHT22;29727;47.606;19.130;2023-02-15T00:44:11;2.70;68.70
44063;DHT22;29727;47.606;19.130;2023-02-15T00:46:37;2.70;68.70
44063;DHT22;29727;47.606;19.130;2023-02-15T00:49:03;2.70;68.70
44063;DHT22;29727;47.606;19.130;2023-02-15T00:51:29;2.70;68.20
44063;DHT22;29727;47.606;19.130;2023-02-15T00:53:55;2.60;68.60
44063;DHT22;29727;47.606;19.130;2023-02-15T00:56:20;2.60;68.70
44063;DHT22;29727;47.606;19.130;2023-02-15T00:58:46;2.60;68.90
44063;DHT22;29727;47.606;19.130;2023-02-15T01:01:14;2.60;68.40
44063;DHT22;29727;47.606;19.130;2023-02-15T01:03:41;2.60;68.90
44063;DHT22;29727;47.606;19.130;2023-02-15T01:06:07;2.60;68.80
44063;DHT22;29727;47.606;19.130;2023-02-15T01:08:33;2.50;68.70
44063;DHT22;29727;47.606;19.130;2023-02-15T01:11:08;2.50;68.20
44063;DHT22;29727;47.606;19.130;2023-02-15T01:13:35;2.50;68.80
44063;DHT22;29727;47.606;19.130;2023-02-15T01:16:01;2.50;68.80
44063;DHT22;29727;47.606;19.130;2023-02-15T01:18:27;2.50;69.00
44063;DHT22;29727;47.606;19.130;2023-02-15T01:20:53;2.40;69.00
44063;DHT22;29727;47.606;19.130;2023-02-15T01:23:19;2.40;69.00
44063;DHT22;29727;47.606;19.130;2023-02-15T01:25:45;2.40;69.00
44063;DHT22;29727;47.606;19.130;2023-02-15T01:28:10;2.40;69.00
44063;DHT22;29727;47.606;19.130;2023-02-15T01:30:36;2.40;68.90
44063;DHT22;29727;47.606;19.130;2023-02-15T01:33:02;2.40;69.00
44063;DHT22;29727;47.606;19.130;2023-02-15T01:35:28;2.40;69.20
44063;DHT22;29727;47.606;19.130;2023-02-15T01:37:55;2.30;68.60
44063;DHT22;29727;47.606;19.130;2023-02-15T01:40:21;2.30;69.10
44063;DHT22;29727;47.606;19.130;2023-02-15T01:42:51;2.30;69.10
44063;DHT22;29727;47.606;19.130;2023-02-15T01:47:56;2.30;69.00
44063;DHT22;29727;47.606;19.130;2023-02-15T01:55:43;2.20;69.20
44063;DHT22;29727;47.606;19.130;2023-02-15T01:58:10;2.20;69.30
44063;DHT22;29727;47.606;19.130;2023-02-15T02:00:36;2.20;69.30
44063;DHT22;29727;47.606;19.130;2023-02-15T02:03:03;2.20;69.20
44063;DHT22;29727;47.606;19.130;2023-02-15T02:05:29;2.20;69.00
44063;DHT22;29727;47.606;19.130;2023-02-15T02:07:57;2.20;68.20
44063;DHT22;29727;47.606;19.130;2023-02-15T02:10:24;2.20;68.50
44063;DHT22;29727;47.606;19.130;2023-02-15T02:12:59;2.10;68.80
44063;DHT22;29727;47.606;19.130;2023-02-15T02:16:05;2.10;68.90
44063;DHT22;29727;47.606;19.130;2023-02-15T02:27:37;2.10;70.00
44063;DHT22;29727;47.606;19.130;2023-02-15T02:35:33;1.90;70.70
44063;DHT22;29727;47.606;19.130;2023-02-15T02:38:10;1.80;71.30
44063;DHT22;29727;47.606;19.130;2023-02-15T02:43:21;1.70;72.30
44063;DHT22;29727;47.606;19.130;2023-02-15T02:46:00;1.70;72.40
44063;DHT22;29727;47.606;19.130;2023-02-15T02:48:32;1.60;72.50
44063;DHT22;29727;47.606;19.130;2023-02-15T02:50:58;1.60;72.50
44063;DHT22;29727;47.606;19.130;2023-02-15T02:53:24;1.70;71.90
44063;DHT22;29727;47.606;19.130;2023-02-15T02:56:09;1.60;72.30
44063;DHT22;29727;47.606;19.130;2023-02-15T02:58:41;1.70;72.30
44063;DHT22;29727;47.606;19.130;2023-02-15T03:01:27;1.70;72.20
44063;DHT22;29727;47.606;19.130;2023-02-15T03:04:43;1.70;71.80
44063;DHT22;29727;47.606;19.130;2023-02-15T03:06:59;1.80;71.70
44063;DHT22;29727;47.606;19.130;2023-02-15T03:09:29;1.80;71.50
44063;DHT22;29727;47.606;19.130;2023-02-15T03:12:00;1.80;71.50
44063;DHT22;29727;47.606;19.130;2023-02-15T03:14:28;1.80;71.50
44063;DHT22;29727;47.606;19.130;2023-02-15T03:16:55;1.80;71.70
44063;DHT22;29727;47.606;19.130;2023-02-15T03:19:28;1.80;71.40
44063;DHT22;29727;47.606;19.130;2023-02-15T03:22:00;1.80;71.30
44063;DHT22;29727;47.606;19.130;2023-02-15T03:27:31;1.70;71.80
44063;DHT22;29727;47.606;19.130;2023-02-15T03:29:59;1.70;72.10
44063;DHT22;29727;47.606;19.130;2023-02-15T03:32:27;1.70;72.20
44063;DHT22;29727;47.606;19.130;2023-02-15T03:34:54;1.70;72.30
44063;DHT22;29727;47.606;19.130;2023-02-15T03:37:31;1.70;72.30
44063;DHT22;29727;47.606;19.130;2023-02-15T03:42:45;1.60;71.50
44063;DHT22;29727;47.606;19.130;2023-02-15T03:45:17;1.60;72.10
44063;DHT22;29727;47.606;19.130;2023-02-15T03:47:49;1.60;71.90
44063;DHT22;29727;47.606;19.130;2023-02-15T03:50:21;1.60;71.80
44063;DHT22;29727;47.606;19.130;2023-02-15T03:53:10;1.60;71.80
44063;DHT22;29727;47.606;19.130;2023-02-15T03:55:37;1.60;71.20
44063;DHT22;29727;47.606;19.130;2023-02-15T03:58:03;1.60;71.70
44063;DHT22;29727;47.606;19.130;2023-02-15T04:00:55;1.60;71.60
44063;DHT22;29727;47.606;19.130;2023-02-15T04:03:43;1.60;71.60
44063;DHT22;29727;47.606;19.130;2023-02-15T04:06:10;1.50;71.50
44063;DHT22;29727;47.606;19.130;2023-02-15T04:08:35;1.50;71.30
44063;DHT22;29727;47.606;19.130;2023-02-15T04:11:20;1.50;71.10
44063;DHT22;29727;47.606;19.130;2023-02-15T04:13:45;1.50;71.00
44063;DHT22;29727;47.606;19.130;2023-02-15T04:16:11;1.50;70.70
44063;DHT22;29727;47.606;19.130;2023-02-15T04:18:42;1.50;70.80
44063;DHT22;29727;47.606;19.130;2023-02-15T04:21:28;1.50;70.30
44063;DHT22;29727;47.606;19.130;2023-02-15T04:24:13;1.50;70.90
44063;DHT22;29727;47.606;19.130;2023-02-15T04:26:58;1.40;70.80
44063;DHT22;29727;47.606;19.130;2023-02-15T04:29:25;1.40;70.70
44063;DHT22;29727;47.606;19.130;2023-02-15T04:31:53;1.40;70.50
44063;DHT22;29727;47.606;19.130;2023-02-15T04:34:18;1.40;69.90
44063;DHT22;29727;47.606;19.130;2023-02-15T04:36:44;1.40;70.60
44063;DHT22;29727;47.606;19.130;2023-02-15T04:39:13;1.40;70.70
44063;DHT22;29727;47.606;19.130;2023-02-15T04:41:38;1.40;70.70
44063;DHT22;29727;47.606;19.130;2023-02-15T04:44:04;1.30;70.50
44063;DHT22;29727;47.606;19.130;2023-02-15T04:46:30;1.30;70.00
44063;DHT22;29727;47.606;19.130;2023-02-15T04:48:56;1.30;70.50
44063;DHT22;29727;47.606;19.130;2023-02-15T04:51:22;1.30;69.80
44063;DHT22;29727;47.606;19.130;2023-02-15T04:53:48;1.30;69.70
44063;DHT22;29727;47.606;19.130;2023-02-15T04:56:13;1.30;70.30
44063;DHT22;29727;47.606;19.130;2023-02-15T04:58:39;1.20;69.70
44063;DHT22;29727;47.606;19.130;2023-02-15T05:01:08;1.20;70.30
44063;DHT22;29727;47.606;19.130;2023-02-15T05:03:34;1.20;70.40
44063;DHT22;29727;47.606;19.130;2023-02-15T05:06:01;1.20;70.20
44063;DHT22;29727;47.606;19.130;2023-02-15T05:08:26;1.20;70.20
44063;DHT22;29727;47.606;19.130;2023-02-15T05:10:52;1.20;70.20
44063;DHT22;29727;47.606;19.130;2023-02-15T05:13:18;1.20;70.20
44063;DHT22;29727;47.606;19.130;2023-02-15T05:15:48;1.20;70.00
44063;DHT22;29727;47.606;19.130;2023-02-15T05:18:14;1.20;69.50
44063;DHT22;29727;47.606;19.130;2023-02-15T05:20:40;1.20;69.90
44063;DHT22;29727;47.606;19.130;2023-02-15T05:23:06;1.10;70.20
44063;DHT22;29727;47.606;19.130;2023-02-15T05:25:31;1.10;70.20
44063;DHT22;29727;47.606;19.130;2023-02-15T05:28:27;1.10;70.20
44063;DHT22;29727;47.606;19.130;2023-02-15T05:31:14;1.10;70.10
44063;DHT22;29727;47.606;19.130;2023-02-15T05:33:40;1.10;70.00
44063;DHT22;29727;47.606;19.130;2023-02-15T05:36:07;1.10;70.10
44063;DHT22;29727;47.606;19.130;2023-02-15T05:38:33;1.10;70.00
44063;DHT22;29727;47.606;19.130;2023-02-15T05:40:59;1.10;70.10
44063;DHT22;29727;47.606;19.130;2023-02-15T05:43:25;1.10;70.10
44063;DHT22;29727;47.606;19.130;2023-02-15T05:45:53;1.10;70.20
44063;DHT22;29727;47.606;19.130;2023-02-15T05:48:20;1.00;70.20
44063;DHT22;29727;47.606;19.130;2023-02-15T05:50:46;1.00;70.40
44063;DHT22;29727;47.606;19.130;2023-02-15T05:53:21;1.00;70.00
44063;DHT22;29727;47.606;19.130;2023-02-15T05:55:47;1.00;70.40
44063;DHT22;29727;47.606;19.130;2023-02-15T05:58:12;1.00;70.30
44063;DHT22;29727;47.606;19.130;2023-02-15T06:00:38;1.00;70.30
44063;DHT22;29727;47.606;19.130;2023-02-15T06:03:04;1.00;70.10
44063;DHT22;29727;47.606;19.130;2023-02-15T06:05:29;0.90;70.00
44063;DHT22;29727;47.606;19.130;2023-02-15T06:07:55;1.00;70.20
44063;DHT22;29727;47.606;19.130;2023-02-15T06:10:21;0.90;70.10
44063;DHT22;29727;47.606;19.130;2023-02-15T06:12:46;0.90;70.60
44063;DHT22;29727;47.606;19.130;2023-02-15T06:15:12;0.90;70.50
44063;DHT22;29727;47.606;19.130;2023-02-15T06:17:41;0.90;70.20
44063;DHT22;29727;47.606;19.130;2023-02-15T06:20:07;0.90;70.20
44063;DHT22;29727;47.606;19.130;2023-02-15T06:22:33;0.90;70.50
44063;DHT22;29727;47.606;19.130;2023-02-15T06:24:59;0.90;70.50
44063;DHT22;29727;47.606;19.130;2023-02-15T06:27:25;0.90;70.60
44063;DHT22;29727;47.606;19.130;2023-02-15T06:29:50;1.00;70.50
44063;DHT22;29727;47.606;19.130;2023-02-15T06:32:16;0.90;70.50
44063;DHT22;29727;47.606;19.130;2023-02-15T06:34:42;0.90;71.10
44063;DHT22;29727;47.606;19.130;2023-02-15T06:37:07;0.90;71.00
44063;DHT22;29727;47.606;19.130;2023-02-15T06:39:34;1.00;70.80
44063;DHT22;29727;47.606;19.130;2023-02-15T06:41:59;1.00;71.30
44063;DHT22;29727;47.606;19.130;2023-02-15T06:44:25;1.00;71.40
44063;DHT22;29727;47.606;19.130;2023-02-15T06:46:51;1.00;71.80
44063;DHT22;29727;47.606;19.130;2023-02-15T06:49:17;1.10;72.20
44063;DHT22;29727;47.606;19.130;2023-02-15T06:51:42;1.10;72.20
44063;DHT22;29727;47.606;19.130;2023-02-15T06:54:08;1.10;72.20
44063;DHT22;29727;47.606;19.130;2023-02-15T06:56:34;1.10;72.40
44063;DHT22;29727;47.606;19.130;2023-02-15T06:59:00;1.20;72.70
44063;DHT22;29727;47.606;19.130;2023-02-15T07:01:26;1.20;72.90
44063;DHT22;29727;47.606;19.130;2023-02-15T07:03:52;1.30;73.50
44063;DHT22;29727;47.606;19.130;2023-02-15T07:06:17;1.30;75.40
44063;DHT22;29727;47.606;19.130;2023-02-15T07:08:43;1.40;76.10
44063;DHT22;29727;47.606;19.130;2023-02-15T07:11:09;1.40;77.60
44063;DHT22;29727;47.606;19.130;2023-02-15T07:13:53;1.40;78.40
44063;DHT22;29727;47.606;19.130;2023-02-15T07:16:19;1.40;79.60
44063;DHT22;29727;47.606;19.130;2023-02-15T07:18:45;1.40;80.00
44063;DHT22;29727;47.606;19.130;2023-02-15T07:21:10;1.30;80.90
44063;DHT22;29727;47.606;19.130;2023-02-15T07:23:39;1.40;81.20
44063;DHT22;29727;47.606;19.130;2023-02-15T07:26:06;1.40;81.60
44063;DHT22;29727;47.606;19.130;2023-02-15T07:28:33;1.40;81.90
44063;DHT22;29727;47.606;19.130;2023-02-15T07:31:02;1.40;82.10
44063;DHT22;29727;47.606;19.130;2023-02-15T07:33:33;1.50;82.50
44063;DHT22;29727;47.606;19.130;2023-02-15T07:36:01;1.50;82.20
44063;DHT22;29727;47.606;19.130;2023-02-15T07:38:34;1.60;82.50
44063;DHT22;29727;47.606;19.130;2023-02-15T07:41:00;1.70;82.50
44063;DHT22;29727;47.606;19.130;2023-02-15T07:43:27;1.80;82.70
44063;DHT22;29727;47.606;19.130;2023-02-15T07:45:53;1.90;82.80
44063;DHT22;29727;47.606;19.130;2023-02-15T07:48:19;1.90;83.00
44063;DHT22;29727;47.606;19.130;2023-02-15T07:50:45;2.00;83.40
44063;DHT22;29727;47.606;19.130;2023-02-15T07:53:10;2.00;83.40
44063;DHT22;29727;47.606;19.130;2023-02-15T07:55:36;2.00;83.60
44063;DHT22;29727;47.606;19.130;2023-02-15T07:58:02;2.10;83.60
44063;DHT22;29727;47.606;19.130;2023-02-15T08:00:28;2.10;83.60
44063;DHT22;29727;47.606;19.130;2023-02-15T08:02:55;2.20;83.60
44063;DHT22;29727;47.606;19.130;2023-02-15T08:05:44;2.20;83.50
44063;DHT22;29727;47.606;19.130;2023-02-15T08:08:11;2.30;83.20
44063;DHT22;29727;47.606;19.130;2023-02-15T08:13:59;2.40;83.40
44063;DHT22;29727;47.606;19.130;2023-02-15T08:16:29;2.50;83.10
44063;DHT22;29727;47.606;19.130;2023-02-15T08:18:56;2.60;83.20
44063;DHT22;29727;47.606;19.130;2023-02-15T08:21:22;2.70;83.30
44063;DHT22;29727;47.606;19.130;2023-02-15T08:23:48;2.80;82.70
44063;DHT22;29727;47.606;19.130;2023-02-15T08:26:14;2.90;82.50
44063;DHT22;29727;47.606;19.130;2023-02-15T08:28:41;3.00;82.60
44063;DHT22;29727;47.606;19.130;2023-02-15T08:31:08;3.00;82.60
44063;DHT22;29727;47.606;19.130;2023-02-15T08:33:35;3.10;82.60
44063;DHT22;29727;47.606;19.130;2023-02-15T08:36:22;3.10;82.50
44063;DHT22;29727;47.606;19.130;2023-02-15T08:38:48;3.30;82.40
44063;DHT22;29727;47.606;19.130;2023-02-15T08:41:18;3.40;82.20
44063;DHT22;29727;47.606;19.130;2023-02-15T08:43:47;3.40;81.60
44063;DHT22;29727;47.606;19.130;2023-02-15T08:46:14;3.50;81.70
44063;DHT22;29727;47.606;19.130;2023-02-15T08:48:40;3.60;81.50
44063;DHT22;29727;47.606;19.130;2023-02-15T08:51:12;3.80;80.40
44063;DHT22;29727;47.606;19.130;2023-02-15T08:53:41;3.80;80.80
44063;DHT22;29727;47.606;19.130;2023-02-15T08:56:07;4.10;79.80
44063;DHT22;29727;47.606;19.130;2023-02-15T08:58:34;4.10;80.20
44063;DHT22;29727;47.606;19.130;2023-02-15T09:01:00;4.20;79.90
44063;DHT22;29727;47.606;19.130;2023-02-15T09:03:28;4.30;79.80
44063;DHT22;29727;47.606;19.130;2023-02-15T09:05:58;4.40;79.80
44063;DHT22;29727;47.606;19.130;2023-02-15T09:08:25;4.60;79.00
44063;DHT22;29727;47.606;19.130;2023-02-15T09:10:51;4.70;78.80
44063;DHT22;29727;47.606;19.130;2023-02-15T09:13:17;4.80;78.80
44063;DHT22;29727;47.606;19.130;2023-02-15T09:15:42;5.00;78.90
44063;DHT22;29727;47.606;19.130;2023-02-15T09:18:08;5.10;78.60
44063;DHT22;29727;47.606;19.130;2023-02-15T09:20:36;5.20;78.10
44063;DHT22;29727;47.606;19.130;2023-02-15T09:23:02;5.40;77.30
44063;DHT22;29727;47.606;19.130;2023-02-15T09:25:28;5.70;76.20
44063;DHT22;29727;47.606;19.130;2023-02-15T09:27:54;5.60;76.70
44063;DHT22;29727;47.606;19.130;2023-02-15T09:30:20;5.80;76.60
44063;DHT22;29727;47.606;19.130;2023-02-15T09:32:47;6.00;75.80
44063;DHT22;29727;47.606;19.130;2023-02-15T09:35:12;6.10;75.10
44063;DHT22;29727;47.606;19.130;2023-02-15T09:37:38;6.20;74.70
44063;DHT22;29727;47.606;19.130;2023-02-15T09:40:04;6.40;74.20
44063;DHT22;29727;47.606;19.130;2023-02-15T09:53:27;6.90;73.00
44063;DHT22;29727;47.606;19.130;2023-02-15T10:09:55;7.70;70.10
44063;DHT22;29727;47.606;19.130;2023-02-15T10:23:36;8.40;67.90
44063;DHT22;29727;47.606;19.130;2023-02-15T10:26:19;8.50;66.90
44063;DHT22;29727;47.606;19.130;2023-02-15T10:29:09;8.70;67.00
44063;DHT22;29727;47.606;19.130;2023-02-15T10:31:51;8.80;66.50
44063;DHT22;29727;47.606;19.130;2023-02-15T10:34:39;8.90;65.80
44063;DHT22;29727;47.606;19.130;2023-02-15T10:48:27;9.40;64.20
44063;DHT22;29727;47.606;19.130;2023-02-15T10:51:01;9.60;62.40
44063;DHT22;29727;47.606;19.130;2023-02-15T11:04:45;9.80;61.90
44063;DHT22;29727;47.606;19.130;2023-02-15T11:07:25;9.90;59.70
44063;DHT22;29727;47.606;19.130;2023-02-15T11:10:00;10.00;61.00
44063;DHT22;29727;47.606;19.130;2023-02-15T11:12:28;10.00;61.30
44063;DHT22;29727;47.606;19.130;2023-02-15T11:15:03;10.10;60.10
44063;DHT22;29727;47.606;19.130;2023-02-15T11:17:45;10.10;60.30
44063;DHT22;29727;47.606;19.130;2023-02-15T11:20:31;10.20;60.70
44063;DHT22;29727;47.606;19.130;2023-02-15T11:23:01;10.30;60.70
44063;DHT22;29727;47.606;19.130;2023-02-15T11:25:31;10.40;59.80
44063;DHT22;29727;47.606;19.130;2023-02-15T11:27:58;10.50;59.30
44063;DHT22;29727;47.606;19.130;2023-02-15T11:30:38;10.60;59.50
44063;DHT22;29727;47.606;19.130;2023-02-15T11:33:24;10.70;59.60
44063;DHT22;29727;47.606;19.130;2023-02-15T11:36:05;10.80;59.20
44063;DHT22;29727;47.606;19.130;2023-02-15T11:38:33;10.90;59.20
44063;DHT22;29727;47.606;19.130;2023-02-15T11:41:21;10.90;58.80
44063;DHT22;29727;47.606;19.130;2023-02-15T11:44:06;11.10;58.10
44063;DHT22;29727;47.606;19.130;2023-02-15T11:46:34;11.10;58.20
44063;DHT22;29727;47.606;19.130;2023-02-15T11:48:59;11.20;58.20
44063;DHT22;29727;47.606;19.130;2023-02-15T11:51:26;11.30;57.10
44063;DHT22;29727;47.606;19.130;2023-02-15T11:53:54;11.40;57.40
44063;DHT22;29727;47.606;19.130;2023-02-15T11:56:24;11.40;57.10
44063;DHT22;29727;47.606;19.130;2023-02-15T12:01:41;11.60;56.60
44063;DHT22;29727;47.606;19.130;2023-02-15T12:04:20;11.70;56.70
44063;DHT22;29727;47.606;19.130;2023-02-15T12:07:12;11.70;56.40
44063;DHT22;29727;47.606;19.130;2023-02-15T12:12:39;11.90;56.30
44063;DHT22;29727;47.606;19.130;2023-02-15T12:15:07;12.00;56.10
44063;DHT22;29727;47.606;19.130;2023-02-15T12:18:15;12.00;55.60
44063;DHT22;29727;47.606;19.130;2023-02-15T12:20:31;12.10;55.70
44063;DHT22;29727;47.606;19.130;2023-02-15T12:23:10;12.20;55.40
44063;DHT22;29727;47.606;19.130;2023-02-15T12:25:42;12.20;55.00
44063;DHT22;29727;47.606;19.130;2023-02-15T12:28:23;12.30;55.10
44063;DHT22;29727;47.606;19.130;2023-02-15T12:30:50;12.30;54.40
44063;DHT22;29727;47.606;19.130;2023-02-15T12:36:11;12.50;54.70
44063;DHT22;29727;47.606;19.130;2023-02-15T12:38:38;12.60;53.90
44063;DHT22;29727;47.606;19.130;2023-02-15T12:41:26;12.60;53.70
44063;DHT22;29727;47.606;19.130;2023-02-15T12:44:17;12.70;53.00
44063;DHT22;29727;47.606;19.130;2023-02-15T12:49:42;12.80;52.90
44063;DHT22;29727;47.606;19.130;2023-02-15T12:54:44;12.80;53.40
44063;DHT22;29727;47.606;19.130;2023-02-15T12:57:32;12.90;53.20
44063;DHT22;29727;47.606;19.130;2023-02-15T13:00:04;12.90;52.70
44063;DHT22;29727;47.606;19.130;2023-02-15T13:02:49;13.00;53.00
44063;DHT22;29727;47.606;19.130;2023-02-15T13:05:42;13.00;52.70
44063;DHT22;29727;47.606;19.130;2023-02-15T13:08:14;13.10;52.60
44063;DHT22;29727;47.606;19.130;2023-02-15T13:10:52;13.20;51.70
44063;DHT22;29727;47.606;19.130;2023-02-15T13:13:22;13.30;51.40
44063;DHT22;29727;47.606;19.130;2023-02-15T13:15:54;13.40;51.00
44063;DHT22;29727;47.606;19.130;2023-02-15T13:20:56;13.50;51.00
44063;DHT22;29727;47.606;19.130;2023-02-15T13:23:29;13.60;50.80
44063;DHT22;29727;47.606;19.130;2023-02-15T13:26:00;13.60;50.60
44063;DHT22;29727;47.606;19.130;2023-02-15T13:28:44;13.70;50.90
44063;DHT22;29727;47.606;19.130;2023-02-15T13:31:15;13.80;50.60
44063;DHT22;29727;47.606;19.130;2023-02-15T13:33:56;13.90;50.30
44063;DHT22;29727;47.606;19.130;2023-02-15T13:50:51;14.00;48.90
44063;DHT22;29727;47.606;19.130;2023-02-15T13:56:44;14.10;49.70
44063;DHT22;29727;47.606;19.130;2023-02-15T14:02:35;14.20;49.10
44063;DHT22;29727;47.606;19.130;2023-02-15T14:05:18;14.30;49.70
44063;DHT22;29727;47.606;19.130;2023-02-15T14:10:40;14.40;48.70
44063;DHT22;29727;47.606;19.130;2023-02-15T14:16:39;14.40;48.70
44063;DHT22;29727;47.606;19.130;2023-02-15T14:19:09;14.50;48.50
44063;DHT22;29727;47.606;19.130;2023-02-15T14:21:47;14.40;48.70
44063;DHT22;29727;47.606;19.130;2023-02-15T14:24:30;14.40;48.50
44063;DHT22;29727;47.606;19.130;2023-02-15T14:27:34;14.30;48.70
44063;DHT22;29727;47.606;19.130;2023-02-15T14:35:40;14.30;48.50
44063;DHT22;29727;47.606;19.130;2023-02-15T14:41:22;14.30;48.50
44063;DHT22;29727;47.606;19.130;2023-02-15T14:44:29;14.30;48.60
44063;DHT22;29727;47.606;19.130;2023-02-15T14:47:09;14.20;48.50
44063;DHT22;29727;47.606;19.130;2023-02-15T14:49:37;13.90;48.60
44063;DHT22;29727;47.606;19.130;2023-02-15T14:52:05;13.80;49.10
44063;DHT22;29727;47.606;19.130;2023-02-15T15:01:58;13.20;50.10
44063;DHT22;29727;47.606;19.130;2023-02-15T15:07:03;13.10;50.90
44063;DHT22;29727;47.606;19.130;2023-02-15T15:09:34;13.10;51.00
44063;DHT22;29727;47.606;19.130;2023-02-15T15:14:48;12.90;51.20
44063;DHT22;29727;47.606;19.130;2023-02-15T15:22:33;12.70;51.80
44063;DHT22;29727;47.606;19.130;2023-02-15T15:25:03;12.70;51.90
44063;DHT22;29727;47.606;19.130;2023-02-15T15:48:51;11.80;54.30
44063;DHT22;29727;47.606;19.130;2023-02-15T15:51:29;11.70;54.00
44063;DHT22;29727;47.606;19.130;2023-02-15T15:53:55;11.60;54.70
44063;DHT22;29727;47.606;19.130;2023-02-15T15:56:28;11.60;54.90
44063;DHT22;29727;47.606;19.130;2023-02-15T15:59:02;11.60;55.00
44063;DHT22;29727;47.606;19.130;2023-02-15T16:01:36;11.50;55.10
44063;DHT22;29727;47.606;19.130;2023-02-15T16:04:04;11.50;55.10
44063;DHT22;29727;47.606;19.130;2023-02-15T16:06:37;11.40;55.20
44063;DHT22;29727;47.606;19.130;2023-02-15T16:11:37;11.30;55.60
44063;DHT22;29727;47.606;19.130;2023-02-15T16:14:32;11.20;55.30
44063;DHT22;29727;47.606;19.130;2023-02-15T16:17:02;11.20;55.90
44063;DHT22;29727;47.606;19.130;2023-02-15T16:19:39;11.20;56.20
44063;DHT22;29727;47.606;19.130;2023-02-15T16:22:35;11.10;56.30
44063;DHT22;29727;47.606;19.130;2023-02-15T16:25:45;11.10;56.40
44063;DHT22;29727;47.606;19.130;2023-02-15T16:28:11;11.00;56.70
44063;DHT22;29727;47.606;19.130;2023-02-15T16:30:38;11.00;56.80
44063;DHT22;29727;47.606;19.130;2023-02-15T16:33:11;10.90;56.90
44063;DHT22;29727;47.606;19.130;2023-02-15T16:35:57;10.90;57.60
44063;DHT22;29727;47.606;19.130;2023-02-15T16:41:26;10.80;57.00
44063;DHT22;29727;47.606;19.130;2023-02-15T16:43:54;10.70;57.50
44063;DHT22;29727;47.606;19.130;2023-02-15T16:46:27;10.70;57.50
44063;DHT22;29727;47.606;19.130;2023-02-15T16:48:56;10.60;57.60
44063;DHT22;29727;47.606;19.130;2023-02-15T16:51:26;10.60;57.20
44063;DHT22;29727;47.606;19.130;2023-02-15T16:53:54;10.60;57.80
44063;DHT22;29727;47.606;19.130;2023-02-15T16:56:24;10.50;57.90
44063;DHT22;29727;47.606;19.130;2023-02-15T16:58:53;10.40;57.90
44063;DHT22;29727;47.606;19.130;2023-02-15T17:01:22;10.40;58.10
44063;DHT22;29727;47.606;19.130;2023-02-15T17:03:50;10.30;58.30
44063;DHT22;29727;47.606;19.130;2023-02-15T17:06:22;10.20;58.00
44063;DHT22;29727;47.606;19.130;2023-02-15T17:08:48;10.20;58.60
44063;DHT22;29727;47.606;19.130;2023-02-15T17:11:22;10.10;58.60
44063;DHT22;29727;47.606;19.130;2023-02-15T17:16:36;9.90;58.90
44063;DHT22;29727;47.606;19.130;2023-02-15T17:19:16;9.80;58.90
44063;DHT22;29727;47.606;19.130;2023-02-15T17:21:53;9.70;59.10
44063;DHT22;29727;47.606;19.130;2023-02-15T17:24:28;9.70;59.10
44063;DHT22;29727;47.606;19.130;2023-02-15T17:27:00;9.60;59.20
44063;DHT22;29727;47.606;19.130;2023-02-15T17:29:38;9.50;59.20
44063;DHT22;29727;47.606;19.130;2023-02-15T17:32:12;9.40;59.30
44063;DHT22;29727;47.606;19.130;2023-02-15T17:34:51;9.30;59.50
44063;DHT22;29727;47.606;19.130;2023-02-15T17:37:25;9.20;59.50
44063;DHT22;29727;47.606;19.130;2023-02-15T17:39:51;9.10;59.60
44063;DHT22;29727;47.606;19.130;2023-02-15T17:42:16;9.00;59.80
44063;DHT22;29727;47.606;19.130;2023-02-15T17:44:45;8.90;59.90
44063;DHT22;29727;47.606;19.130;2023-02-15T17:47:15;8.90;60.20
44063;DHT22;29727;47.606;19.130;2023-02-15T17:49:42;8.60;59.70
44063;DHT22;29727;47.606;19.130;2023-02-15T17:52:13;8.60;60.20
44063;DHT22;29727;47.606;19.130;2023-02-15T17:54:40;8.60;60.40
44063;DHT22;29727;47.606;19.130;2023-02-15T17:57:24;8.50;61.00
44063;DHT22;29727;47.606;19.130;2023-02-15T17:59:51;8.40;60.80
44063;DHT22;29727;47.606;19.130;2023-02-15T18:02:35;8.30;60.90
44063;DHT22;29727;47.606;19.130;2023-02-15T18:05:22;8.20;61.10
44063;DHT22;29727;47.606;19.130;2023-02-15T18:08:18;8.10;61.20
44063;DHT22;29727;47.606;19.130;2023-02-15T18:11:08;8.00;61.20
44063;DHT22;29727;47.606;19.130;2023-02-15T18:13:53;7.90;61.50
44063;DHT22;29727;47.606;19.130;2023-02-15T18:16:23;7.80;61.60
44063;DHT22;29727;47.606;19.130;2023-02-15T18:18:52;7.70;61.80
44063;DHT22;29727;47.606;19.130;2023-02-15T18:21:18;7.60;62.10
44063;DHT22;29727;47.606;19.130;2023-02-15T18:23:44;7.60;62.30
44063;DHT22;29727;47.606;19.130;2023-02-15T18:26:17;7.50;62.40
44063;DHT22;29727;47.606;19.130;2023-02-15T18:28:44;7.40;62.60
44063;DHT22;29727;47.606;19.130;2023-02-15T18:31:10;7.40;62.90
44063;DHT22;29727;47.606;19.130;2023-02-15T18:33:44;7.30;62.80
44063;DHT22;29727;47.606;19.130;2023-02-15T18:36:34;7.20;62.90
44063;DHT22;29727;47.606;19.130;2023-02-15T18:39:02;7.20;62.90
44063;DHT22;29727;47.606;19.130;2023-02-15T18:41:28;7.20;62.80
44063;DHT22;29727;47.606;19.130;2023-02-15T18:43:54;7.10;74.00
44063;DHT22;29727;47.606;19.130;2023-02-15T18:46:21;7.30;69.70
44063;DHT22;29727;47.606;19.130;2023-02-15T18:48:47;7.40;63.60
44063;DHT22;29727;47.606;19.130;2023-02-15T18:51:21;7.50;61.20
44063;DHT22;29727;47.606;19.130;2023-02-15T18:53:49;7.60;61.20
44063;DHT22;29727;47.606;19.130;2023-02-15T18:56:17;7.60;61.70
44063;DHT22;29727;47.606;19.130;2023-02-15T18:58:44;7.50;60.80
44063;DHT22;29727;47.606;19.130;2023-02-15T19:01:19;7.50;61.00
44063;DHT22;29727;47.606;19.130;2023-02-15T19:03:49;7.40;61.10